Concord, Virginia
Current Conditions -  °F | °C
As of 11:54 PM on Wednesday 22 Oct 2014 (Local Time) from KLYH Reporting Station
Clear Clear  
Wind Chill: 51°   Ceiling: Unl
Heat Index: 51°   Visibility: 10mi
Dew Point: 39°   Wind: 8mph
Humidity: 63%   Direction: 310°NW
Pressure: 30.03"   Gusts: NA
Location:  37.34°N, 78.98°W
Report Text: KLYH 230354Z AUTO 31007KT 10SM CLR 11/04 A3003 RMK AO2 SLP167 T01060039
Loading
Personal Weather Stations






























Interactive Weather Map
Tropical Storm Tracking
New forecast layout! Learn more

10-Day Weather Forecast

Advertisements
Track Severe Weather on mobile